Time;durP1;ratioP1;P1;durP2;ratioP2;P2;SDS_P1;SDS_P2;PMS_P1;PMS_P2;Temp;Humidity;BMP_temperature;BMP_pressure;BME280_temperature;BME280_humidity;BME280_pressure;Samples;Min_cycle;Max_cycle;Signal;HPM_P1;HPM_P2
2022/05/04 00:00:48;;;;;;;4.60;3.20;;;22.60;45.00;;;;;;5013241;28;20455;-62
2022/05/04 00:03:14;;;;;;;3.97;3.30;;;22.60;45.00;;;;;;5012753;28;20420;-62
2022/05/04 00:05:40;;;;;;;4.33;3.30;;;22.60;45.00;;;;;;5011989;28;20792;-61
2022/05/04 00:08:06;;;;;;;4.25;3.20;;;22.50;45.00;;;;;;5013220;28;20415;-61
2022/05/04 00:10:35;;;;;;;5.97;3.53;;;22.60;45.00;;;;;;5012176;28;20423;-61
2022/05/04 00:13:01;;;;;;;4.30;3.40;;;22.50;45.10;;;;;;5013089;28;20440;-61
2022/05/04 00:15:27;;;;;;;3.80;3.13;;;22.50;45.00;;;;;;5012691;28;20389;-62
2022/05/04 00:17:53;;;;;;;5.30;3.30;;;22.50;45.00;;;;;;5012880;28;21052;-61
2022/05/04 00:20:19;;;;;;;3.70;3.00;;;22.50;44.90;;;;;;5013605;28;20483;-62
2022/05/04 00:22:45;;;;;;;4.68;3.33;;;22.50;45.00;;;;;;5012789;28;20499;-61
2022/05/04 00:25:11;;;;;;;3.60;3.17;;;22.50;45.10;;;;;;5012493;28;20397;-61
2022/05/04 00:27:37;;;;;;;4.63;3.20;;;22.50;45.10;;;;;;5012734;28;20554;-61
2022/05/04 00:30:05;;;;;;;3.65;3.33;;;22.50;45.10;;;;;;5012791;28;20459;-61
2022/05/04 00:32:30;;;;;;;3.92;3.00;;;22.50;45.10;;;;;;5012675;28;20472;-61
2022/05/04 00:34:57;;;;;;;3.95;3.15;;;22.50;45.10;;;;;;5012687;28;20481;-61
2022/05/04 00:37:22;;;;;;;3.47;3.10;;;22.40;45.00;;;;;;5012257;28;20756;-61
2022/05/04 00:39:48;;;;;;;3.67;3.13;;;22.50;45.10;;;;;;5012959;28;20487;-62
2022/05/04 00:42:16;;;;;;;4.67;3.33;;;22.50;45.10;;;;;;5012522;28;20389;-62
2022/05/04 00:44:44;;;;;;;3.70;3.05;;;22.50;45.10;;;;;;5012421;28;20503;-62
2022/05/04 00:47:11;;;;;;;3.47;3.17;;;22.40;45.00;;;;;;5012002;28;20390;-61
2022/05/04 00:49:38;;;;;;;3.80;3.20;;;22.40;45.00;;;;;;5012462;28;20392;-62
2022/05/04 00:52:05;;;;;;;3.50;3.20;;;22.50;45.10;;;;;;5013439;28;20400;-61
2022/05/04 00:54:32;;;;;;;3.45;2.80;;;22.40;45.00;;;;;;5012632;28;20436;-61
2022/05/04 00:56:59;;;;;;;4.32;3.28;;;22.40;45.00;;;;;;5012337;28;20389;-61
2022/05/04 00:59:26;;;;;;;3.40;2.92;;;22.40;45.00;;;;;;5011965;28;20385;-62
2022/05/04 01:01:52;;;;;;;3.87;3.10;;;22.40;45.10;;;;;;5012266;28;20459;-61
2022/05/04 01:04:18;;;;;;;3.25;2.95;;;22.40;45.20;;;;;;5012131;28;20416;-62
2022/05/04 01:06:46;;;;;;;3.22;2.80;;;22.40;45.00;;;;;;5012119;28;20400;-61
2022/05/04 01:09:12;;;;;;;3.50;3.08;;;22.40;45.10;;;;;;5013810;28;20472;-61
2022/05/04 01:11:38;;;;;;;2.88;2.67;;;22.40;45.10;;;;;;5012266;28;20405;-62
2022/05/04 01:14:06;;;;;;;3.63;2.75;;;22.40;45.00;;;;;;5012180;28;20400;-61
2022/05/04 01:16:33;;;;;;;3.10;2.72;;;22.40;45.00;;;;;;5011664;28;20417;-61
2022/05/04 01:18:59;;;;;;;3.17;2.88;;;22.40;45.10;;;;;;5012028;28;20399;-61
2022/05/04 01:21:25;;;;;;;3.33;2.90;;;22.40;45.10;;;;;;5011459;28;20397;-61
2022/05/04 01:23:53;;;;;;;3.13;2.80;;;22.40;45.10;;;;;;5011801;28;20412;-61
2022/05/04 01:26:20;;;;;;;3.10;2.80;;;22.40;45.10;;;;;;5011942;28;20393;-61
2022/05/04 01:28:46;;;;;;;3.25;2.90;;;22.40;45.10;;;;;;5011822;28;20397;-61
2022/05/04 01:31:12;;;;;;;3.75;2.58;;;22.30;45.10;;;;;;5011493;28;20435;-61
2022/05/04 01:33:38;;;;;;;3.13;2.60;;;22.30;45.10;;;;;;5011754;28;20393;-61
2022/05/04 01:36:05;;;;;;;3.42;2.67;;;22.30;45.10;;;;;;5011822;28;20395;-61
2022/05/04 01:38:30;;;;;;;3.22;2.50;;;22.30;45.10;;;;;;5011775;28;20401;-61
2022/05/04 01:40:56;;;;;;;3.72;2.67;;;22.30;45.10;;;;;;5011692;28;20417;-61
2022/05/04 01:43:21;;;;;;;3.30;2.80;;;22.30;45.20;;;;;;5011210;28;20460;-61
2022/05/04 01:45:47;;;;;;;2.77;2.40;;;22.30;45.10;;;;;;5011421;28;20385;-61
2022/05/04 01:48:13;;;;;;;4.53;2.47;;;22.30;45.10;;;;;;5011729;28;20522;-61
2022/05/04 01:50:38;;;;;;;3.33;2.60;;;22.30;45.20;;;;;;5011717;28;20745;-61
2022/05/04 01:53:04;;;;;;;3.35;2.50;;;22.30;45.20;;;;;;5011497;28;20392;-61
2022/05/04 01:55:34;;;;;;;3.05;2.30;;;22.30;45.20;;;;;;5011372;28;20396;-62
2022/05/04 01:58:00;;;;;;;2.97;2.42;;;22.30;45.20;;;;;;5011678;28;20439;-61
2022/05/04 02:00:26;;;;;;;2.90;2.60;;;22.30;45.10;;;;;;5011882;28;20401;-61
2022/05/04 02:02:53;;;;;;;2.93;2.50;;;22.30;45.10;;;;;;5011452;28;20423;-61
2022/05/04 02:05:19;;;;;;;2.92;2.60;;;22.30;45.10;;;;;;5011093;28;20423;-61
2022/05/04 02:07:45;;;;;;;3.42;2.60;;;22.30;45.20;;;;;;5011560;28;20671;-62
2022/05/04 02:10:11;;;;;;;3.55;2.60;;;22.30;45.20;;;;;;5011546;28;20888;-61
2022/05/04 02:12:37;;;;;;;2.95;2.60;;;22.20;45.00;;;;;;5011389;28;20888;-61
2022/05/04 02:15:08;;;;;;;2.90;2.55;;;22.20;45.10;;;;;;5011468;28;20401;-61
2022/05/04 02:17:35;;;;;;;2.80;2.40;;;22.20;45.20;;;;;;5011308;28;20817;-61
2022/05/04 02:20:01;;;;;;;2.90;2.60;;;22.20;45.10;;;;;;5011435;28;20746;-61
2022/05/04 02:22:27;;;;;;;2.88;2.50;;;22.20;45.20;;;;;;5011305;28;20388;-62
2022/05/04 02:24:52;;;;;;;3.05;2.72;;;22.20;45.30;;;;;;5012527;28;20407;-61
2022/05/04 02:27:19;;;;;;;4.17;2.70;;;22.20;45.30;;;;;;5013533;28;20393;-61
2022/05/04 02:29:44;;;;;;;3.10;2.63;;;22.20;45.30;;;;;;5015917;28;20428;-61
2022/05/04 02:32:10;;;;;;;3.15;2.85;;;22.20;45.30;;;;;;5015107;28;20427;-61
2022/05/04 02:37:54;;;;;;;3.03;2.67;;;22.20;45.40;;;;;;5015111;28;20808;-62
2022/05/04 02:40:07;;;;;;;3.13;2.63;;;22.20;45.30;;;;;;5018251;28;20457;-61
2022/05/04 02:42:32;;;;;;;3.10;2.80;;;22.20;45.50;;;;;;5015871;28;20403;-61
2022/05/04 02:44:58;;;;;;;3.75;2.60;;;22.20;45.50;;;;;;5014805;28;20479;-62
2022/05/04 02:47:24;;;;;;;3.72;2.75;;;22.20;45.40;;;;;;5014405;28;20499;-61
2022/05/04 02:49:50;;;;;;;3.07;2.63;;;22.20;45.50;;;;;;5014695;28;20397;-61
2022/05/04 02:52:15;;;;;;;3.35;2.60;;;22.20;45.40;;;;;;5015341;28;20416;-62
2022/05/04 02:54:41;;;;;;;3.10;2.80;;;22.20;45.30;;;;;;5015917;28;20385;-61
2022/05/04 02:57:07;;;;;;;3.67;2.70;;;22.10;45.30;;;;;;5014663;28;20392;-61
2022/05/04 02:59:33;;;;;;;3.35;2.70;;;22.10;45.40;;;;;;5014587;28;20396;-61
2022/05/04 03:04:43;;;;;;;3.88;2.80;;;22.10;45.30;;;;;;5014408;28;20499;-62
2022/05/04 03:07:08;;;;;;;3.00;2.70;;;22.10;45.00;;;;;;5014926;28;20389;-61
2022/05/04 03:09:34;;;;;;;3.80;2.40;;;22.10;46.30;;;;;;5014140;28;20392;-61
2022/05/04 03:12:04;;;;;;;4.63;2.78;;;22.10;45.80;;;;;;5013839;28;20411;-63
2022/05/04 03:14:30;;;;;;;7.18;4.40;;;22.10;46.80;;;;;;5014087;28;20443;-61
2022/05/04 03:16:56;;;;;;;8.23;5.00;;;22.10;46.60;;;;;;5014251;28;20389;-61
2022/05/04 03:19:23;;;;;;;6.55;4.00;;;22.10;49.00;;;;;;5013857;28;20480;-62
2022/05/04 03:21:50;;;;;;;11.50;3.57;;;22.20;49.00;;;;;;5013983;28;20400;-62
2022/05/04 03:24:16;;;;;;;7.13;3.30;;;22.30;49.10;;;;;;5014097;28;20452;-62
2022/05/04 03:26:41;;;;;;;7.47;3.20;;;22.30;49.20;;;;;;5014090;28;20400;-62
2022/05/04 03:29:08;;;;;;;5.70;3.28;;;22.30;48.70;;;;;;5014039;28;20397;-62
2022/05/04 03:31:34;;;;;;;5.72;2.90;;;22.40;50.00;;;;;;5013511;28;20393;-61
2022/05/04 03:34:01;;;;;;;9.82;3.15;;;22.40;49.30;;;;;;5013861;28;20393;-62
2022/05/04 03:36:27;;;;;;;4.70;3.20;;;22.40;49.60;;;;;;5013859;28;20408;-62
2022/05/04 03:38:53;;;;;;;6.50;3.17;;;22.40;49.80;;;;;;5013566;28;20805;-62
2022/05/04 03:41:18;;;;;;;6.10;2.83;;;22.40;49.80;;;;;;5013264;28;20393;-63
2022/05/04 03:43:44;;;;;;;10.43;3.15;;;22.40;49.80;;;;;;5013370;28;20448;-61
2022/05/04 03:46:16;;;;;;;9.00;3.20;;;22.40;49.60;;;;;;5013620;28;20412;-61
2022/05/04 03:48:43;;;;;;;6.00;3.00;;;22.40;49.70;;;;;;5013358;28;20389;-61
2022/05/04 03:51:09;;;;;;;6.97;2.90;;;22.40;49.90;;;;;;5013187;28;20392;-62
2022/05/04 03:53:36;;;;;;;6.65;2.70;;;22.50;50.00;;;;;;5013138;28;20424;-61
2022/05/04 03:56:02;;;;;;;4.82;2.92;;;22.40;49.40;;;;;;5013482;28;20873;-61
2022/05/04 03:58:27;;;;;;;4.05;3.00;;;22.40;49.10;;;;;;5013223;28;20432;-61
2022/05/04 04:00:53;;;;;;;4.22;3.00;;;22.40;48.90;;;;;;5013302;28;20381;-61
2022/05/04 04:03:19;;;;;;;4.37;2.87;;;22.40;48.40;;;;;;5012855;28;20409;-62
2022/05/04 04:05:44;;;;;;;6.63;2.97;;;22.40;48.40;;;;;;5013051;28;20459;-61
2022/05/04 04:08:10;;;;;;;8.88;3.17;;;22.40;48.40;;;;;;5013197;28;20377;-62
2022/05/04 04:10:35;;;;;;;8.50;3.63;;;22.30;47.80;;;;;;5012936;28;20765;-61
2022/05/04 04:13:02;;;;;;;9.02;3.33;;;22.30;47.10;;;;;;5013055;28;20746;-62
2022/05/04 04:15:28;;;;;;;6.75;3.10;;;22.20;47.20;;;;;;5012470;28;20405;-62
2022/05/04 04:17:54;;;;;;;8.40;3.60;;;22.20;47.70;;;;;;5013044;28;20415;-62
2022/05/04 04:23:04;;;;;;;6.38;3.33;;;22.20;47.80;;;;;;5012962;28;20416;-62
2022/05/04 04:25:30;;;;;;;6.70;3.50;;;22.20;47.70;;;;;;5012347;28;20397;-62
2022/05/04 04:27:55;;;;;;;6.00;3.22;;;22.20;47.80;;;;;;5012848;28;20400;-62
2022/05/04 04:30:21;;;;;;;5.80;3.40;;;22.20;47.60;;;;;;5012976;28;20393;-62
2022/05/04 04:32:46;;;;;;;5.60;3.08;;;22.20;47.60;;;;;;5030320;28;20395;-62
2022/05/04 04:35:12;;;;;;;6.23;3.20;;;22.20;47.30;;;;;;5032035;28;20478;-62
2022/05/04 04:37:38;;;;;;;5.25;3.00;;;22.20;47.30;;;;;;5031965;28;20596;-61
2022/05/04 04:40:04;;;;;;;5.40;3.13;;;22.20;47.10;;;;;;5032207;28;20395;-62
2022/05/04 04:42:30;;;;;;;3.50;3.20;;;22.10;47.00;;;;;;5032320;28;20395;-61
2022/05/04 04:44:55;;;;;;;4.30;2.90;;;22.20;46.90;;;;;;5032230;28;20412;-61
2022/05/04 04:47:21;;;;;;;3.80;3.03;;;22.10;46.80;;;;;;5015217;28;20430;-61
2022/05/04 04:49:46;;;;;;;3.30;2.60;;;22.10;46.80;;;;;;5006443;28;20402;-61
2022/05/04 04:52:12;;;;;;;4.45;3.05;;;22.10;46.70;;;;;;5009380;28;20873;-61
2022/05/04 04:54:38;;;;;;;5.13;2.90;;;22.20;46.60;;;;;;5008981;28;20385;-62
2022/05/04 04:57:04;;;;;;;7.30;3.10;;;22.10;46.60;;;;;;4995119;28;20909;-62
2022/05/04 04:59:29;;;;;;;5.95;2.83;;;22.10;46.90;;;;;;4992196;28;20398;-61
2022/05/04 05:01:55;;;;;;;6.80;3.00;;;22.10;47.20;;;;;;4992431;28;20397;-61
2022/05/04 05:04:20;;;;;;;10.85;3.97;;;22.20;47.40;;;;;;4992151;28;20415;-61
2022/05/04 05:06:46;;;;;;;13.25;5.65;;;22.10;47.40;;;;;;4992316;28;20390;-62
2022/05/04 05:09:12;;;;;;;16.33;4.50;;;22.20;49.40;;;;;;4992430;28;20410;-62
2022/05/04 05:11:38;;;;;;;13.77;4.50;;;22.20;48.70;;;;;;4991746;28;20406;-62
2022/05/04 05:16:49;;;;;;;9.75;3.80;;;22.20;48.50;;;;;;4992296;28;20373;-62
2022/05/04 05:19:14;;;;;;;9.57;3.83;;;22.20;48.80;;;;;;5007125;28;20394;-61
2022/05/04 05:21:41;;;;;;;9.48;3.63;;;22.30;48.90;;;;;;4991784;28;20397;-62
2022/05/04 05:24:07;;;;;;;8.30;3.72;;;22.30;48.90;;;;;;4999936;28;20435;-62
2022/05/04 05:26:32;;;;;;;8.90;3.40;;;22.30;48.80;;;;;;5002207;28;20385;-62
2022/05/04 05:28:58;;;;;;;9.37;3.33;;;22.30;48.60;;;;;;4999702;28;20483;-62
2022/05/04 05:31:24;;;;;;;9.50;3.50;;;22.30;48.60;;;;;;4999306;28;20394;-62
2022/05/04 05:33:50;;;;;;;6.93;3.47;;;22.30;48.60;;;;;;5001930;28;20401;-62
2022/05/04 05:36:15;;;;;;;7.95;3.40;;;22.30;48.60;;;;;;5000843;28;20398;-62
2022/05/04 05:38:41;;;;;;;7.73;3.47;;;22.30;48.70;;;;;;4999848;28;20892;-62
2022/05/04 05:41:07;;;;;;;5.75;3.30;;;22.30;48.80;;;;;;4999842;28;20418;-62
2022/05/04 05:43:32;;;;;;;7.27;3.00;;;22.30;48.70;;;;;;4991607;28;20895;-62
2022/05/04 05:45:58;;;;;;;6.05;3.20;;;22.30;48.60;;;;;;4991973;28;20863;-62
2022/05/04 05:48:24;;;;;;;4.63;3.17;;;22.30;48.50;;;;;;5011103;28;20757;-61
2022/05/04 05:50:51;;;;;;;6.82;2.90;;;22.30;47.90;;;;;;5010913;28;20393;-61
2022/05/04 05:53:17;;;;;;;5.75;2.90;;;22.30;48.20;;;;;;5010917;28;20405;-61
2022/05/04 05:55:42;;;;;;;7.60;2.92;;;22.30;47.80;;;;;;5011109;28;20392;-61
2022/05/04 05:58:10;;;;;;;5.50;2.97;;;22.30;48.00;;;;;;5011308;28;20480;-61
2022/05/04 06:00:36;;;;;;;5.15;2.83;;;22.30;47.90;;;;;;5010490;28;20837;-61
2022/05/04 06:03:01;;;;;;;4.97;3.05;;;22.30;47.70;;;;;;5013846;28;20520;-61
2022/05/04 06:05:27;;;;;;;6.00;3.00;;;22.30;48.00;;;;;;5014743;28;20885;-61
2022/05/04 06:07:53;;;;;;;5.22;2.80;;;22.30;47.60;;;;;;5015390;28;20884;-61
2022/05/04 06:10:19;;;;;;;5.00;2.67;;;22.30;47.50;;;;;;5015233;28;20756;-61
2022/05/04 06:12:44;;;;;;;5.35;2.60;;;22.30;47.30;;;;;;5015059;28;20393;-61
2022/05/04 06:15:11;;;;;;;5.45;2.72;;;22.30;47.30;;;;;;5014963;28;20384;-61
2022/05/04 06:17:37;;;;;;;3.75;2.50;;;22.30;47.30;;;;;;5014629;28;20399;-61
2022/05/04 06:20:04;;;;;;;4.07;2.65;;;22.30;47.00;;;;;;5015668;28;20893;-61
2022/05/04 06:22:31;;;;;;;4.35;2.67;;;22.20;47.00;;;;;;5014772;28;20427;-62
2022/05/04 06:24:56;;;;;;;4.30;2.95;;;22.20;46.90;;;;;;5014986;28;20427;-62
2022/05/04 06:27:22;;;;;;;4.55;2.80;;;22.20;46.80;;;;;;5014576;28;20389;-61
2022/05/04 06:35:16;;;;;;;6.63;2.90;;;22.20;46.70;;;;;;5014810;28;20952;-61
2022/05/04 06:37:42;;;;;;;7.07;3.13;;;22.20;46.60;;;;;;5014199;28;20401;-61
2022/05/04 06:40:08;;;;;;;6.40;3.03;;;22.20;46.90;;;;;;5014610;28;20404;-61
2022/05/04 06:42:34;;;;;;;5.38;3.05;;;22.20;46.90;;;;;;5014207;28;20407;-61
2022/05/04 06:45:01;;;;;;;5.47;2.97;;;22.20;46.90;;;;;;5014369;28;20773;-61
2022/05/04 06:47:26;;;;;;;6.00;2.90;;;22.20;47.00;;;;;;5014004;28;20392;-61
2022/05/04 06:49:52;;;;;;;5.00;2.97;;;22.30;46.80;;;;;;5014474;28;20397;-61
2022/05/04 06:52:18;;;;;;;6.38;2.70;;;22.30;45.80;;;;;;5014385;28;20418;-61
2022/05/04 06:54:43;;;;;;;4.10;2.57;;;22.30;45.50;;;;;;5003414;28;20519;-62
2022/05/04 06:57:09;;;;;;;6.07;2.93;;;22.30;45.80;;;;;;4994903;28;20485;-61
2022/05/04 06:59:35;;;;;;;4.70;2.95;;;22.30;45.70;;;;;;4993979;28;20764;-61
2022/05/04 07:02:01;;;;;;;4.22;2.80;;;22.30;45.80;;;;;;5008692;28;20411;-61
2022/05/04 07:04:27;;;;;;;3.28;2.33;;;22.30;46.00;;;;;;5022628;28;20434;-61
2022/05/04 07:06:53;;;;;;;4.13;2.60;;;22.40;45.50;;;;;;5032841;28;20457;-62
2022/05/04 07:09:18;;;;;;;3.80;2.75;;;22.40;45.30;;;;;;5018793;28;20398;-61
2022/05/04 07:11:44;;;;;;;3.78;2.53;;;22.30;45.30;;;;;;5029046;28;20468;-61
2022/05/04 07:14:10;;;;;;;5.60;2.47;;;22.30;45.30;;;;;;5032427;28;20478;-62
2022/05/04 07:16:36;;;;;;;3.47;2.78;;;22.30;46.10;;;;;;5033405;28;20394;-62
2022/05/04 07:19:02;;;;;;;4.75;2.58;;;22.30;45.60;;;;;;5033666;28;20399;-62
2022/05/04 07:21:28;;;;;;;3.65;2.50;;;22.30;45.40;;;;;;5033040;28;20389;-62
2022/05/04 07:23:54;;;;;;;3.10;2.50;;;22.40;45.10;;;;;;5033437;28;20452;-61
2022/05/04 07:26:20;;;;;;;3.55;2.70;;;22.40;45.20;;;;;;5033296;28;21094;-62
2022/05/04 07:28:45;;;;;;;3.93;2.60;;;22.30;45.30;;;;;;5033355;28;20399;-61
2022/05/04 07:31:11;;;;;;;3.67;2.40;;;22.40;45.50;;;;;;5027197;28;20457;-62
2022/05/04 07:33:37;;;;;;;3.40;2.40;;;22.40;45.80;;;;;;5010242;28;20383;-61
2022/05/04 07:36:02;;;;;;;3.50;2.40;;;22.40;45.20;;;;;;4996963;28;20398;-61
2022/05/04 07:38:29;;;;;;;2.90;2.38;;;22.40;45.00;;;;;;5007767;28;20472;-62
2022/05/04 07:43:39;;;;;;;3.00;2.50;;;22.40;45.10;;;;;;5029980;28;20549;-61
2022/05/04 07:46:04;;;;;;;3.75;2.30;;;22.40;45.30;;;;;;5025961;28;20398;-61
2022/05/04 07:48:30;;;;;;;3.20;2.33;;;22.40;45.60;;;;;;5032977;28;20430;-61
2022/05/04 07:50:55;;;;;;;3.25;2.58;;;22.40;45.30;;;;;;5032973;28;20453;-61
2022/05/04 07:53:21;;;;;;;2.97;2.40;;;22.50;45.00;;;;;;5033016;28;20415;-61
2022/05/04 07:55:47;;;;;;;3.58;2.20;;;22.50;45.00;;;;;;5022061;28;20389;-62
2022/05/04 07:58:13;;;;;;;2.40;2.20;;;22.40;45.00;;;;;;5012866;28;20397;-62
2022/05/04 08:06:07;;;;;;;3.55;2.38;;;22.50;45.30;;;;;;5002740;28;20466;-62
2022/05/04 08:08:33;;;;;;;2.55;2.20;;;22.50;44.80;;;;;;5010014;28;20907;-62
2022/05/04 08:10:59;;;;;;;2.80;2.50;;;22.50;44.90;;;;;;5004225;28;20412;-62
2022/05/04 08:13:25;;;;;;;2.63;2.40;;;22.50;45.20;;;;;;5005237;28;20765;-95
2022/05/04 08:15:51;;;;;;;3.27;2.60;;;22.50;45.30;;;;;;5010246;28;20423;-61
2022/05/04 08:18:17;;;;;;;3.10;2.50;;;22.50;45.30;;;;;;5023333;28;20404;-61
2022/05/04 08:20:43;;;;;;;3.30;2.40;;;22.50;45.00;;;;;;5009192;28;20875;-61
2022/05/04 08:23:10;;;;;;;3.10;2.40;;;22.60;44.80;;;;;;4992493;28;20909;-62
2022/05/04 08:25:35;;;;;;;3.05;2.40;;;22.60;44.70;;;;;;4994861;28;20885;-61
2022/05/04 08:28:01;;;;;;;2.85;2.53;;;22.60;45.20;;;;;;5024774;28;20398;-62
2022/05/04 08:30:27;;;;;;;2.80;2.23;;;22.60;45.30;;;;;;5029517;28;20495;-62
2022/05/04 08:32:53;;;;;;;2.75;2.30;;;22.60;45.40;;;;;;5029055;28;20391;-61
2022/05/04 08:35:19;;;;;;;2.63;2.35;;;22.60;45.00;;;;;;5032214;28;20487;-62
2022/05/04 08:37:45;;;;;;;2.50;2.30;;;22.70;44.60;;;;;;5031606;28;20408;-62
2022/05/04 08:40:11;;;;;;;2.90;2.60;;;22.70;44.50;;;;;;5031699;28;20902;-61
2022/05/04 08:42:42;;;;;;;3.17;2.60;;;22.70;44.50;;;;;;4995352;28;20475;-62
2022/05/04 08:45:11;;;;;;;2.47;2.28;;;22.60;45.00;;;;;;4992890;28;20406;-61
2022/05/04 08:47:40;;;;;;;2.70;2.42;;;22.60;45.10;;;;;;4995061;28;20470;-62
2022/05/04 08:50:14;;;;;;;2.90;2.30;;;22.70;44.50;;;;;;5009413;28;20411;-62
2022/05/04 08:52:44;;;;;;;2.55;2.35;;;22.70;44.40;;;;;;5023185;28;20391;-62
2022/05/04 08:55:11;;;;;;;2.83;2.40;;;22.70;44.80;;;;;;5016532;28;20499;-61
2022/05/04 08:57:38;;;;;;;2.67;2.38;;;22.70;44.40;;;;;;5009111;28;20403;-61
2022/05/04 09:00:05;;;;;;;2.90;2.53;;;22.70;44.90;;;;;;5007353;28;20399;-61
2022/05/04 09:02:31;;;;;;;3.40;2.47;;;22.70;44.90;;;;;;5031566;28;20402;-62
2022/05/04 09:05:17;;;;;;;2.60;2.33;;;22.70;44.70;;;;;;5031134;28;20415;-62
2022/05/04 09:07:44;;;;;;;3.10;2.50;;;22.80;44.50;;;;;;5022854;28;20396;-62
2022/05/04 09:10:27;;;;;;;2.75;2.33;;;22.80;44.40;;;;;;4997786;28;20485;-62
2022/05/04 09:12:55;;;;;;;2.60;2.30;;;22.80;44.50;;;;;;5003759;28;20409;-62
2022/05/04 09:15:21;;;;;;;4.75;2.30;;;22.80;44.70;;;;;;5007539;28;20412;-61
2022/05/04 09:17:54;;;;;;;4.30;2.40;;;22.80;44.80;;;;;;5014926;28;20388;-61
2022/05/04 09:23:10;;;;;;;79.78;29.00;;;22.80;45.50;;;;;;5031129;28;20413;-62
2022/05/04 09:25:36;;;;;;;28.97;10.77;;;22.90;46.00;;;;;;5030653;28;20525;-61
2022/05/04 09:28:02;;;;;;;21.55;9.13;;;22.90;45.80;;;;;;5030001;28;20399;-61
2022/05/04 09:30:28;;;;;;;24.08;9.65;;;22.90;45.50;;;;;;5031259;28;20454;-61
2022/05/04 09:32:53;;;;;;;20.17;7.97;;;22.90;45.90;;;;;;5027174;28;20399;-61
2022/05/04 09:35:19;;;;;;;18.37;8.50;;;22.90;45.80;;;;;;5019353;28;20401;-62
2022/05/04 09:46:05;;;;;;;16.20;5.80;;;22.80;45.00;;;;;;5007749;28;20439;-61
2022/05/04 09:48:34;;;;;;;14.32;5.60;;;22.80;45.00;;;;;;5011565;28;20401;-62
2022/05/04 09:51:08;;;;;;;21.73;7.97;;;22.80;45.30;;;;;;5011831;28;20393;-62
2022/05/04 09:53:35;;;;;;;36.65;14.15;;;22.80;47.00;;;;;;5009454;28;20403;-61
2022/05/04 09:56:01;;;;;;;131.93;46.88;;;22.80;46.70;;;;;;5011454;28;20392;-61
2022/05/04 09:58:28;;;;;;;77.07;26.67;;;22.80;48.60;;;;;;5011261;28;20396;-61
2022/05/04 10:00:55;;;;;;;47.25;16.88;;;22.80;49.20;;;;;;5008501;28;20382;-61
2022/05/04 10:03:21;;;;;;;38.55;13.52;;;22.90;48.30;;;;;;4991583;28;20513;-61
2022/05/04 10:05:49;;;;;;;34.30;12.80;;;22.90;46.70;;;;;;4991036;28;20426;-61
2022/05/04 10:08:15;;;;;;;31.98;12.10;;;22.90;46.70;;;;;;4991851;28;20887;-61
2022/05/04 10:10:42;;;;;;;35.28;12.13;;;22.80;45.90;;;;;;4991539;28;20414;-62
2022/05/04 10:13:08;;;;;;;28.13;10.50;;;22.90;46.60;;;;;;4991758;28;20391;-61
2022/05/04 10:15:37;;;;;;;26.67;11.57;;;22.90;46.20;;;;;;4991184;28;20474;-61
2022/05/04 10:18:04;;;;;;;26.60;10.13;;;22.80;46.00;;;;;;4992830;28;20410;-62
2022/05/04 10:20:41;;;;;;;28.20;9.98;;;22.80;46.00;;;;;;4991597;28;20394;-62
2022/05/04 10:23:21;;;;;;;29.02;10.38;;;22.80;46.30;;;;;;5001215;28;20877;-61
2022/05/04 10:25:48;;;;;;;23.45;9.38;;;22.80;46.60;;;;;;5010674;28;20620;-61
2022/05/04 10:28:15;;;;;;;23.13;9.10;;;22.80;46.40;;;;;;5010941;28;20427;-61
2022/05/04 10:30:58;;;;;;;23.80;8.98;;;22.80;45.50;;;;;;5010624;28;20415;-61
2022/05/04 10:33:33;;;;;;;22.73;8.60;;;22.90;46.10;;;;;;5010631;28;20792;-61
2022/05/04 10:36:19;;;;;;;17.83;7.95;;;22.80;47.30;;;;;;5010551;28;20925;-61
2022/05/04 10:38:46;;;;;;;19.42;7.68;;;22.90;47.10;;;;;;5003910;28;20405;-61
2022/05/04 10:41:15;;;;;;;19.08;7.80;;;22.90;47.10;;;;;;4991362;28;20383;-61
2022/05/04 10:43:47;;;;;;;18.13;7.37;;;22.90;46.70;;;;;;4991949;28;20457;-61
2022/05/04 10:46:21;;;;;;;18.23;6.80;;;22.90;46.40;;;;;;4991946;28;20404;-62
2022/05/04 10:49:08;;;;;;;16.48;6.78;;;22.90;46.30;;;;;;4991769;28;20433;-61
2022/05/04 10:51:35;;;;;;;11.65;5.90;;;22.90;46.00;;;;;;4993352;28;20492;-61
2022/05/04 10:54:08;;;;;;;13.98;6.20;;;22.90;46.00;;;;;;4994295;28;20896;-61
2022/05/04 10:56:45;;;;;;;12.77;5.53;;;22.90;45.90;;;;;;4994861;28;20436;-61
2022/05/04 10:59:12;;;;;;;13.77;5.68;;;22.90;45.80;;;;;;4993511;28;20394;-62
2022/05/04 11:01:40;;;;;;;11.48;5.65;;;22.90;45.70;;;;;;4994441;28;20966;-61
2022/05/04 11:04:14;;;;;;;9.93;5.40;;;22.90;46.00;;;;;;4994548;28;20449;-61
2022/05/04 11:06:52;;;;;;;11.93;5.43;;;23.00;46.30;;;;;;4994330;28;20485;-61
2022/05/04 11:09:20;;;;;;;10.80;5.20;;;23.00;46.30;;;;;;4993343;28;20906;-62
2022/05/04 11:11:49;;;;;;;12.38;5.00;;;23.00;46.30;;;;;;4993946;28;20410;-62
2022/05/04 11:14:16;;;;;;;8.82;4.70;;;23.00;46.00;;;;;;4994447;28;20398;-61
2022/05/04 11:16:44;;;;;;;9.20;4.60;;;23.00;46.10;;;;;;4994490;28;20394;-61
2022/05/04 11:19:12;;;;;;;8.63;4.55;;;23.00;46.40;;;;;;4994376;28;20742;-61
2022/05/04 11:21:38;;;;;;;8.20;4.38;;;23.00;46.20;;;;;;4993724;28;20395;-61
2022/05/04 11:24:16;;;;;;;9.37;4.40;;;23.00;46.20;;;;;;4993865;28;20422;-61
2022/05/04 11:26:43;;;;;;;11.07;4.90;;;23.00;45.40;;;;;;4994244;28;20390;-61
2022/05/04 11:29:14;;;;;;;8.70;4.20;;;23.00;45.90;;;;;;4994266;28;20481;-61
2022/05/04 11:31:46;;;;;;;10.23;4.50;;;23.00;45.70;;;;;;4992588;28;20405;-61
2022/05/04 11:34:16;;;;;;;7.93;4.40;;;23.00;45.80;;;;;;4993752;28;20419;-62
2022/05/04 11:36:46;;;;;;;10.50;4.32;;;23.00;45.50;;;;;;4993627;28;20378;-61
2022/05/04 11:39:17;;;;;;;9.60;4.60;;;23.00;45.60;;;;;;4993778;28;20399;-61
2022/05/04 11:41:51;;;;;;;8.95;4.35;;;23.00;45.70;;;;;;4993312;28;20382;-61
2022/05/04 11:44:18;;;;;;;7.78;4.10;;;23.10;45.00;;;;;;4993688;28;20911;-62
2022/05/04 11:46:49;;;;;;;8.73;3.75;;;23.10;44.80;;;;;;5006415;28;20408;-61
2022/05/04 11:49:15;;;;;;;7.80;3.80;;;23.10;45.00;;;;;;5012684;28;20406;-62
2022/05/04 11:51:41;;;;;;;6.05;3.40;;;23.10;45.10;;;;;;5014504;28;20440;-62
2022/05/04 11:54:08;;;;;;;10.75;4.20;;;23.10;44.80;;;;;;5028295;28;21043;-62
2022/05/04 11:56:35;;;;;;;11.17;3.87;;;23.10;44.90;;;;;;5019872;28;20397;-62
2022/05/04 11:59:01;;;;;;;7.05;3.70;;;23.10;44.40;;;;;;5015787;28;20399;-62
2022/05/04 12:01:27;;;;;;;9.05;3.70;;;23.20;44.40;;;;;;5027129;28;20393;-62
2022/05/04 12:03:53;;;;;;;5.78;3.90;;;23.20;44.40;;;;;;5006090;28;20430;-62
2022/05/04 12:06:20;;;;;;;8.50;3.60;;;23.20;44.70;;;;;;5021404;28;20451;-62
2022/05/04 12:08:46;;;;;;;8.20;3.60;;;23.10;44.60;;;;;;5028128;28;20387;-62
2022/05/04 12:11:12;;;;;;;7.35;3.75;;;23.10;44.60;;;;;;5024770;28;20413;-62
2022/05/04 12:13:40;;;;;;;6.73;3.73;;;23.20;44.60;;;;;;5027479;28;20399;-62
2022/05/04 12:16:07;;;;;;;6.15;3.60;;;23.30;44.40;;;;;;5030110;28;20502;-63
2022/05/04 12:18:35;;;;;;;6.47;3.65;;;23.30;44.20;;;;;;5031703;28;20410;-62
2022/05/04 12:21:20;;;;;;;7.32;3.30;;;23.20;44.10;;;;;;5031558;28;20394;-62
2022/05/04 12:23:48;;;;;;;6.97;3.67;;;23.20;44.00;;;;;;5010422;28;20444;-62
2022/05/04 12:26:15;;;;;;;6.25;3.42;;;23.20;44.20;;;;;;5011403;28;20393;-62
2022/05/04 12:28:42;;;;;;;7.18;3.50;;;23.30;44.20;;;;;;5012111;28;20399;-63
2022/05/04 12:33:56;;;;;;;6.25;3.63;;;23.30;43.90;;;;;;5007972;28;20417;-62
2022/05/04 12:36:23;;;;;;;7.30;3.50;;;23.30;44.00;;;;;;5002819;28;20404;-62
2022/05/04 12:38:50;;;;;;;6.40;3.20;;;23.30;43.90;;;;;;4999539;28;20943;-62
2022/05/04 12:41:21;;;;;;;5.35;3.22;;;23.20;44.20;;;;;;5001596;28;20408;-62
2022/05/04 12:43:49;;;;;;;5.30;3.00;;;23.30;44.10;;;;;;5003651;28;20427;-62
2022/05/04 12:46:17;;;;;;;4.32;2.92;;;23.30;43.90;;;;;;4998758;28;20406;-62
2022/05/04 12:48:48;;;;;;;5.35;3.22;;;23.30;44.00;;;;;;4995393;28;20403;-62
2022/05/04 12:51:17;;;;;;;5.60;3.53;;;23.30;44.00;;;;;;4998362;28;20440;-62
2022/05/04 12:53:47;;;;;;;4.38;3.00;;;23.30;44.10;;;;;;4994320;28;20430;-63
2022/05/04 12:59:01;;;;;;;5.68;3.25;;;23.30;44.00;;;;;;4994823;28;20433;-62
2022/05/04 13:01:28;;;;;;;5.05;2.92;;;23.30;44.00;;;;;;5001133;28;20400;-62
2022/05/04 13:03:54;;;;;;;3.97;2.80;;;23.30;44.10;;;;;;4991626;28;20871;-61
2022/05/04 13:06:21;;;;;;;4.03;2.80;;;23.30;43.80;;;;;;4998833;28;20484;-62
2022/05/04 13:08:48;;;;;;;4.88;2.90;;;23.30;43.90;;;;;;4991613;28;20437;-62
2022/05/04 13:11:18;;;;;;;4.70;2.80;;;23.30;43.90;;;;;;4994294;28;20475;-62
2022/05/04 13:13:44;;;;;;;3.70;2.70;;;23.30;43.90;;;;;;5000706;28;20476;-62
2022/05/04 13:16:10;;;;;;;4.28;2.70;;;23.40;43.70;;;;;;5000563;28;20482;-62
2022/05/04 13:18:36;;;;;;;4.72;2.53;;;23.40;43.70;;;;;;5001777;28;20389;-62
2022/05/04 13:21:03;;;;;;;4.40;2.97;;;23.30;43.60;;;;;;4999877;28;21021;-62
2022/05/04 13:23:29;;;;;;;3.65;2.83;;;23.30;43.70;;;;;;5000139;28;20417;-62
2022/05/04 13:25:56;;;;;;;4.13;2.80;;;23.30;43.70;;;;;;5001040;28;20433;-62